Главная страница
METAR-TAF:

METAR-TAF

Аэропорты :

Элефтериос Венизелос

Афины, Греция

широта: 37-56N, долгота: 023-56E, высота над уровнем моря: 94 м

Текущие метеонаблюдения

Эта сводка был подготовлена 30 минут назад, в 12:20 UTC
Ветер 10 Узел от восточно-северо-восточный
Температура 21°C
Влажность 53%
Давление 1016 hPa
Видимость 10 км и более
небольшая облачность на высоте 3000 фута

METAR: LGAV 211220Z 07010KT 9999 FEW030 21/11 Q1016 NOSIG

Время: 15:50 (12:50 UTC)

Прогноз

Эта сводка был подготовлена 1 час и 50 минут назад, в 11:00 UTC
Прогноз действительный с 21-го 12 UTC до 22-го 12 UTC
Ветер 12 Узел от северо-северо-восточный
Видимость 10 км и более
небольшая облачность на высоте 3000 фута
Отдельные облака на высоте 7000 фута
временами
С 21-го 18 UTC до 21-го 24 UTC
Рассеянная облачность на высоте 7000 фута

TAF: LGAV 211100Z 2112/2212 03012KT 9999 FEW030 SCT070 TEMPO 2118/2124 BKN070

Метеонаблюдения и прогнозы для более 4000 аэропортов (сводки METAR и TAF).

Имеющиеся станции представлены на карте желтыми и красными точками.

Чтобы увидеть название станции, наведите на нее мышь.

Затем щелкните, чтобы увидеть метеонаблюдения и метеопрогнозы.

Управление картой: чтобы увеличить масштаб, щелкните зеленые кнопки с черным крестиком; чтобы уменьшить масштаб, щелкните зеленую кнопку с тире; для просмотра соседних карт щелкайте зеленые стрелки.


METAR-TAF: